sensor_id;sensor_type;location;lat;lon;timestamp;P1;durP1;ratioP1;P2;durP2;ratioP2
8927;SDS011;4499;48.304;11.902;2023-04-15T00:00:55;8.77;;;5.63;;
8927;SDS011;4499;48.304;11.902;2023-04-15T00:03:24;6.63;;;5.30;;
8927;SDS011;4499;48.304;11.902;2023-04-15T00:05:54;8.13;;;6.37;;
8927;SDS011;4499;48.304;11.902;2023-04-15T00:08:22;11.20;;;6.10;;
8927;SDS011;4499;48.304;11.902;2023-04-15T00:10:50;10.17;;;6.20;;
8927;SDS011;4499;48.304;11.902;2023-04-15T00:13:20;9.80;;;5.93;;
8927;SDS011;4499;48.304;11.902;2023-04-15T00:15:49;11.10;;;6.83;;
8927;SDS011;4499;48.304;11.902;2023-04-15T00:18:17;13.13;;;6.33;;
8927;SDS011;4499;48.304;11.902;2023-04-15T00:20:45;9.33;;;6.43;;
8927;SDS011;4499;48.304;11.902;2023-04-15T00:23:13;10.20;;;6.73;;
8927;SDS011;4499;48.304;11.902;2023-04-15T00:25:41;10.70;;;6.93;;
8927;SDS011;4499;48.304;11.902;2023-04-15T00:28:10;9.10;;;6.87;;
8927;SDS011;4499;48.304;11.902;2023-04-15T00:30:39;12.03;;;6.93;;
8927;SDS011;4499;48.304;11.902;2023-04-15T00:33:07;9.23;;;6.23;;
8927;SDS011;4499;48.304;11.902;2023-04-15T00:35:35;8.93;;;6.20;;
8927;SDS011;4499;48.304;11.902;2023-04-15T00:38:04;11.57;;;7.13;;
8927;SDS011;4499;48.304;11.902;2023-04-15T00:40:33;12.33;;;6.60;;
8927;SDS011;4499;48.304;11.902;2023-04-15T00:43:02;10.37;;;6.90;;
8927;SDS011;4499;48.304;11.902;2023-04-15T00:45:30;12.67;;;7.00;;
8927;SDS011;4499;48.304;11.902;2023-04-15T00:48:00;10.93;;;7.10;;
8927;SDS011;4499;48.304;11.902;2023-04-15T00:50:29;11.57;;;7.60;;
8927;SDS011;4499;48.304;11.902;2023-04-15T00:52:57;11.17;;;7.57;;
8927;SDS011;4499;48.304;11.902;2023-04-15T00:55:25;10.40;;;7.30;;
8927;SDS011;4499;48.304;11.902;2023-04-15T00:57:53;13.90;;;7.97;;
8927;SDS011;4499;48.304;11.902;2023-04-15T01:00:22;13.30;;;7.50;;
8927;SDS011;4499;48.304;11.902;2023-04-15T01:02:51;15.03;;;7.60;;
8927;SDS011;4499;48.304;11.902;2023-04-15T01:05:21;12.00;;;7.80;;
8927;SDS011;4499;48.304;11.902;2023-04-15T01:07:50;11.60;;;7.87;;
8927;SDS011;4499;48.304;11.902;2023-04-15T01:10:18;12.13;;;7.87;;
8927;SDS011;4499;48.304;11.902;2023-04-15T01:12:46;11.23;;;7.90;;
8927;SDS011;4499;48.304;11.902;2023-04-15T01:15:14;12.60;;;7.70;;
8927;SDS011;4499;48.304;11.902;2023-04-15T01:17:43;11.63;;;8.70;;
8927;SDS011;4499;48.304;11.902;2023-04-15T01:20:11;11.60;;;7.83;;
8927;SDS011;4499;48.304;11.902;2023-04-15T01:22:42;11.63;;;8.10;;
8927;SDS011;4499;48.304;11.902;2023-04-15T01:25:12;11.10;;;7.87;;
8927;SDS011;4499;48.304;11.902;2023-04-15T01:27:46;10.47;;;8.33;;
8927;SDS011;4499;48.304;11.902;2023-04-15T01:30:15;11.40;;;8.33;;
8927;SDS011;4499;48.304;11.902;2023-04-15T01:32:43;12.03;;;8.40;;
8927;SDS011;4499;48.304;11.902;2023-04-15T01:35:11;12.03;;;8.53;;
8927;SDS011;4499;48.304;11.902;2023-04-15T01:37:39;12.20;;;8.17;;
8927;SDS011;4499;48.304;11.902;2023-04-15T01:40:10;11.17;;;8.67;;
8927;SDS011;4499;48.304;11.902;2023-04-15T01:42:39;11.70;;;8.43;;
8927;SDS011;4499;48.304;11.902;2023-04-15T01:45:09;13.80;;;8.83;;
8927;SDS011;4499;48.304;11.902;2023-04-15T01:47:37;12.87;;;8.80;;
8927;SDS011;4499;48.304;11.902;2023-04-15T01:50:06;11.63;;;8.37;;
8927;SDS011;4499;48.304;11.902;2023-04-15T01:52:35;10.50;;;8.80;;
8927;SDS011;4499;48.304;11.902;2023-04-15T01:55:03;11.23;;;8.77;;
8927;SDS011;4499;48.304;11.902;2023-04-15T01:57:33;13.80;;;9.33;;
8927;SDS011;4499;48.304;11.902;2023-04-15T02:00:02;12.60;;;9.20;;
8927;SDS011;4499;48.304;11.902;2023-04-15T02:02:34;12.90;;;9.47;;
8927;SDS011;4499;48.304;11.902;2023-04-15T02:05:03;11.13;;;8.70;;
8927;SDS011;4499;48.304;11.902;2023-04-15T02:07:31;14.17;;;10.07;;
8927;SDS011;4499;48.304;11.902;2023-04-15T02:09:59;11.77;;;9.70;;
8927;SDS011;4499;48.304;11.902;2023-04-15T02:12:28;12.73;;;9.67;;
8927;SDS011;4499;48.304;11.902;2023-04-15T02:14:56;11.93;;;9.50;;
8927;SDS011;4499;48.304;11.902;2023-04-15T02:17:24;10.90;;;9.10;;
8927;SDS011;4499;48.304;11.902;2023-04-15T02:19:55;14.03;;;9.23;;
8927;SDS011;4499;48.304;11.902;2023-04-15T02:22:24;11.37;;;9.17;;
8927;SDS011;4499;48.304;11.902;2023-04-15T02:24:53;12.57;;;9.30;;
8927;SDS011;4499;48.304;11.902;2023-04-15T02:27:21;11.20;;;9.23;;
8927;SDS011;4499;48.304;11.902;2023-04-15T02:29:49;12.53;;;9.60;;
8927;SDS011;4499;48.304;11.902;2023-04-15T02:32:18;12.80;;;9.73;;
8927;SDS011;4499;48.304;11.902;2023-04-15T02:34:48;11.17;;;9.87;;
8927;SDS011;4499;48.304;11.902;2023-04-15T02:37:17;12.97;;;10.20;;
8927;SDS011;4499;48.304;11.902;2023-04-15T02:39:46;13.67;;;10.30;;
8927;SDS011;4499;48.304;11.902;2023-04-15T02:42:14;12.00;;;10.33;;
8927;SDS011;4499;48.304;11.902;2023-04-15T02:44:42;15.03;;;10.63;;
8927;SDS011;4499;48.304;11.902;2023-04-15T02:47:10;14.20;;;10.70;;
8927;SDS011;4499;48.304;11.902;2023-04-15T02:49:39;13.43;;;10.60;;
8927;SDS011;4499;48.304;11.902;2023-04-15T02:52:07;13.77;;;10.10;;
8927;SDS011;4499;48.304;11.902;2023-04-15T02:54:37;12.77;;;10.77;;
8927;SDS011;4499;48.304;11.902;2023-04-15T02:57:05;11.83;;;10.00;;
8927;SDS011;4499;48.304;11.902;2023-04-15T02:59:33;14.17;;;11.27;;
8927;SDS011;4499;48.304;11.902;2023-04-15T03:02:01;12.30;;;10.67;;
8927;SDS011;4499;48.304;11.902;2023-04-15T03:04:29;13.87;;;11.00;;
8927;SDS011;4499;48.304;11.902;2023-04-15T03:06:57;13.20;;;10.63;;
8927;SDS011;4499;48.304;11.902;2023-04-15T03:09:26;12.70;;;10.87;;
8927;SDS011;4499;48.304;11.902;2023-04-15T03:11:55;12.60;;;10.67;;
8927;SDS011;4499;48.304;11.902;2023-04-15T03:14:23;15.90;;;10.33;;
8927;SDS011;4499;48.304;11.902;2023-04-15T03:16:52;12.93;;;10.73;;
8927;SDS011;4499;48.304;11.902;2023-04-15T03:19:21;15.10;;;10.83;;
8927;SDS011;4499;48.304;11.902;2023-04-15T03:21:48;13.90;;;10.93;;
8927;SDS011;4499;48.304;11.902;2023-04-15T03:24:17;15.23;;;11.60;;
8927;SDS011;4499;48.304;11.902;2023-04-15T03:26:45;13.13;;;11.53;;
8927;SDS011;4499;48.304;11.902;2023-04-15T03:29:14;15.70;;;12.20;;
8927;SDS011;4499;48.304;11.902;2023-04-15T03:31:43;13.80;;;11.47;;
8927;SDS011;4499;48.304;11.902;2023-04-15T03:34:11;15.47;;;11.17;;
8927;SDS011;4499;48.304;11.902;2023-04-15T03:36:39;13.77;;;11.33;;
8927;SDS011;4499;48.304;11.902;2023-04-15T03:39:07;13.30;;;11.50;;
8927;SDS011;4499;48.304;11.902;2023-04-15T03:41:35;13.07;;;11.13;;
8927;SDS011;4499;48.304;11.902;2023-04-15T03:44:04;15.50;;;11.43;;
8927;SDS011;4499;48.304;11.902;2023-04-15T03:46:33;13.80;;;11.97;;
8927;SDS011;4499;48.304;11.902;2023-04-15T03:49:01;15.10;;;11.10;;
8927;SDS011;4499;48.304;11.902;2023-04-15T03:51:30;15.47;;;11.70;;
8927;SDS011;4499;48.304;11.902;2023-04-15T03:53:58;14.67;;;11.40;;
8927;SDS011;4499;48.304;11.902;2023-04-15T03:56:26;13.83;;;12.00;;
8927;SDS011;4499;48.304;11.902;2023-04-15T03:58:54;13.00;;;10.97;;
8927;SDS011;4499;48.304;11.902;2023-04-15T04:01:22;14.80;;;11.70;;
8927;SDS011;4499;48.304;11.902;2023-04-15T04:03:56;14.87;;;12.03;;
8927;SDS011;4499;48.304;11.902;2023-04-15T04:06:24;13.37;;;11.60;;
8927;SDS011;4499;48.304;11.902;2023-04-15T04:08:52;16.03;;;11.63;;
8927;SDS011;4499;48.304;11.902;2023-04-15T04:11:21;14.80;;;11.50;;
8927;SDS011;4499;48.304;11.902;2023-04-15T04:13:49;14.33;;;11.67;;
8927;SDS011;4499;48.304;11.902;2023-04-15T04:16:17;13.90;;;11.63;;
8927;SDS011;4499;48.304;11.902;2023-04-15T04:18:45;13.80;;;11.77;;
8927;SDS011;4499;48.304;11.902;2023-04-15T04:21:15;14.83;;;11.77;;
8927;SDS011;4499;48.304;11.902;2023-04-15T04:23:43;13.67;;;11.83;;
8927;SDS011;4499;48.304;11.902;2023-04-15T04:26:11;14.33;;;12.00;;
8927;SDS011;4499;48.304;11.902;2023-04-15T04:28:39;14.27;;;11.70;;
8927;SDS011;4499;48.304;11.902;2023-04-15T04:31:08;14.73;;;12.10;;
8927;SDS011;4499;48.304;11.902;2023-04-15T04:33:37;14.47;;;12.10;;
8927;SDS011;4499;48.304;11.902;2023-04-15T04:36:05;12.13;;;10.87;;
8927;SDS011;4499;48.304;11.902;2023-04-15T04:38:35;13.50;;;11.57;;
8927;SDS011;4499;48.304;11.902;2023-04-15T04:41:03;13.43;;;10.73;;
8927;SDS011;4499;48.304;11.902;2023-04-15T04:43:31;13.00;;;10.97;;
8927;SDS011;4499;48.304;11.902;2023-04-15T04:45:59;12.60;;;10.77;;
8927;SDS011;4499;48.304;11.902;2023-04-15T04:48:27;12.50;;;10.97;;
8927;SDS011;4499;48.304;11.902;2023-04-15T04:50:55;13.23;;;11.07;;
8927;SDS011;4499;48.304;11.902;2023-04-15T04:53:24;12.20;;;10.37;;
8927;SDS011;4499;48.304;11.902;2023-04-15T04:55:54;13.27;;;10.17;;
8927;SDS011;4499;48.304;11.902;2023-04-15T04:58:22;12.20;;;9.53;;
8927;SDS011;4499;48.304;11.902;2023-04-15T05:00:51;12.03;;;10.13;;
8927;SDS011;4499;48.304;11.902;2023-04-15T05:03:19;11.37;;;10.17;;
8927;SDS011;4499;48.304;11.902;2023-04-15T05:05:48;15.37;;;9.70;;
8927;SDS011;4499;48.304;11.902;2023-04-15T05:08:16;11.50;;;9.37;;
8927;SDS011;4499;48.304;11.902;2023-04-15T05:10:44;12.80;;;9.77;;
8927;SDS011;4499;48.304;11.902;2023-04-15T05:13:13;11.97;;;9.53;;
8927;SDS011;4499;48.304;11.902;2023-04-15T05:15:41;11.23;;;9.00;;
8927;SDS011;4499;48.304;11.902;2023-04-15T05:18:10;11.37;;;8.87;;
8927;SDS011;4499;48.304;11.902;2023-04-15T05:20:38;10.60;;;9.07;;
8927;SDS011;4499;48.304;11.902;2023-04-15T05:23:07;10.30;;;8.80;;
8927;SDS011;4499;48.304;11.902;2023-04-15T05:25:35;10.23;;;8.53;;
8927;SDS011;4499;48.304;11.902;2023-04-15T05:28:03;10.17;;;8.37;;
8927;SDS011;4499;48.304;11.902;2023-04-15T05:30:33;10.10;;;8.43;;
8927;SDS011;4499;48.304;11.902;2023-04-15T05:33:01;9.70;;;8.70;;
8927;SDS011;4499;48.304;11.902;2023-04-15T05:35:32;10.37;;;7.90;;
8927;SDS011;4499;48.304;11.902;2023-04-15T05:38:00;12.87;;;8.30;;
8927;SDS011;4499;48.304;11.902;2023-04-15T05:40:29;10.63;;;8.63;;
8927;SDS011;4499;48.304;11.902;2023-04-15T05:42:57;12.73;;;9.30;;
8927;SDS011;4499;48.304;11.902;2023-04-15T05:45:25;10.33;;;7.83;;
8927;SDS011;4499;48.304;11.902;2023-04-15T05:47:55;9.73;;;8.10;;
8927;SDS011;4499;48.304;11.902;2023-04-15T05:50:23;9.67;;;8.17;;
8927;SDS011;4499;48.304;11.902;2023-04-15T05:52:51;10.43;;;7.83;;
8927;SDS011;4499;48.304;11.902;2023-04-15T05:55:19;10.00;;;7.53;;
8927;SDS011;4499;48.304;11.902;2023-04-15T05:57:47;8.67;;;7.13;;
8927;SDS011;4499;48.304;11.902;2023-04-15T06:00:16;9.60;;;7.77;;
8927;SDS011;4499;48.304;11.902;2023-04-15T06:02:44;9.70;;;7.60;;
8927;SDS011;4499;48.304;11.902;2023-04-15T06:05:14;9.93;;;7.70;;
8927;SDS011;4499;48.304;11.902;2023-04-15T06:07:43;9.80;;;7.87;;
8927;SDS011;4499;48.304;11.902;2023-04-15T06:10:13;8.63;;;7.47;;
8927;SDS011;4499;48.304;11.902;2023-04-15T06:12:42;8.23;;;6.73;;
8927;SDS011;4499;48.304;11.902;2023-04-15T06:15:10;9.43;;;7.50;;
8927;SDS011;4499;48.304;11.902;2023-04-15T06:17:38;8.17;;;6.67;;
8927;SDS011;4499;48.304;11.902;2023-04-15T06:20:06;8.67;;;6.87;;
8927;SDS011;4499;48.304;11.902;2023-04-15T06:22:37;10.70;;;7.83;;
8927;SDS011;4499;48.304;11.902;2023-04-15T06:25:09;9.97;;;7.07;;
8927;SDS011;4499;48.304;11.902;2023-04-15T06:27:37;9.93;;;6.83;;
8927;SDS011;4499;48.304;11.902;2023-04-15T06:30:06;9.40;;;7.47;;
8927;SDS011;4499;48.304;11.902;2023-04-15T06:32:35;8.10;;;7.03;;
8927;SDS011;4499;48.304;11.902;2023-04-15T06:35:03;10.30;;;7.23;;
8927;SDS011;4499;48.304;11.902;2023-04-15T06:37:32;10.07;;;6.80;;
8927;SDS011;4499;48.304;11.902;2023-04-15T06:40:02;9.03;;;7.43;;
8927;SDS011;4499;48.304;11.902;2023-04-15T06:42:30;8.60;;;7.00;;
8927;SDS011;4499;48.304;11.902;2023-04-15T06:44:59;7.73;;;6.70;;
8927;SDS011;4499;48.304;11.902;2023-04-15T06:47:27;9.57;;;6.53;;
8927;SDS011;4499;48.304;11.902;2023-04-15T06:49:56;9.77;;;6.60;;
8927;SDS011;4499;48.304;11.902;2023-04-15T06:52:24;8.57;;;6.57;;
8927;SDS011;4499;48.304;11.902;2023-04-15T06:54:52;8.97;;;6.53;;
8927;SDS011;4499;48.304;11.902;2023-04-15T06:57:21;7.73;;;6.47;;
8927;SDS011;4499;48.304;11.902;2023-04-15T06:59:49;7.13;;;6.00;;
8927;SDS011;4499;48.304;11.902;2023-04-15T07:02:20;7.30;;;5.97;;
8927;SDS011;4499;48.304;11.902;2023-04-15T07:04:48;8.30;;;6.53;;
8927;SDS011;4499;48.304;11.902;2023-04-15T07:07:16;7.10;;;6.40;;
8927;SDS011;4499;48.304;11.902;2023-04-15T07:09:44;9.57;;;7.00;;
8927;SDS011;4499;48.304;11.902;2023-04-15T07:12:13;8.80;;;6.80;;
8927;SDS011;4499;48.304;11.902;2023-04-15T07:14:42;7.53;;;6.37;;
8927;SDS011;4499;48.304;11.902;2023-04-15T07:17:10;9.97;;;6.73;;
8927;SDS011;4499;48.304;11.902;2023-04-15T07:19:38;10.40;;;6.40;;
8927;SDS011;4499;48.304;11.902;2023-04-15T07:22:07;7.57;;;6.50;;
8927;SDS011;4499;48.304;11.902;2023-04-15T07:24:35;7.93;;;6.60;;
8927;SDS011;4499;48.304;11.902;2023-04-15T07:27:03;7.60;;;6.43;;
8927;SDS011;4499;48.304;11.902;2023-04-15T07:29:31;8.33;;;6.33;;
8927;SDS011;4499;48.304;11.902;2023-04-15T07:32:01;9.03;;;6.03;;
8927;SDS011;4499;48.304;11.902;2023-04-15T07:34:29;9.00;;;6.60;;
8927;SDS011;4499;48.304;11.902;2023-04-15T07:36:58;8.63;;;5.97;;
8927;SDS011;4499;48.304;11.902;2023-04-15T07:39:27;9.13;;;6.20;;
8927;SDS011;4499;48.304;11.902;2023-04-15T07:41:56;7.70;;;6.27;;
8927;SDS011;4499;48.304;11.902;2023-04-15T07:44:25;7.53;;;6.30;;
8927;SDS011;4499;48.304;11.902;2023-04-15T07:46:53;7.93;;;6.37;;
8927;SDS011;4499;48.304;11.902;2023-04-15T07:49:23;8.47;;;6.43;;
8927;SDS011;4499;48.304;11.902;2023-04-15T07:51:52;8.43;;;6.33;;
8927;SDS011;4499;48.304;11.902;2023-04-15T07:54:20;8.10;;;5.97;;
8927;SDS011;4499;48.304;11.902;2023-04-15T07:56:48;7.20;;;6.00;;
8927;SDS011;4499;48.304;11.902;2023-04-15T07:59:16;8.50;;;6.50;;
8927;SDS011;4499;48.304;11.902;2023-04-15T08:01:44;9.33;;;6.60;;
8927;SDS011;4499;48.304;11.902;2023-04-15T08:04:13;7.63;;;6.50;;
8927;SDS011;4499;48.304;11.902;2023-04-15T08:06:43;9.10;;;6.40;;
8927;SDS011;4499;48.304;11.902;2023-04-15T08:09:13;9.93;;;6.47;;
8927;SDS011;4499;48.304;11.902;2023-04-15T08:11:41;10.60;;;6.73;;
8927;SDS011;4499;48.304;11.902;2023-04-15T08:14:10;9.67;;;6.27;;
8927;SDS011;4499;48.304;11.902;2023-04-15T08:16:39;9.47;;;6.67;;
8927;SDS011;4499;48.304;11.902;2023-04-15T08:19:07;8.50;;;6.37;;
8927;SDS011;4499;48.304;11.902;2023-04-15T08:21:35;9.43;;;6.73;;
8927;SDS011;4499;48.304;11.902;2023-04-15T08:24:05;8.73;;;6.03;;
8927;SDS011;4499;48.304;11.902;2023-04-15T08:26:33;10.77;;;6.47;;
8927;SDS011;4499;48.304;11.902;2023-04-15T08:29:26;7.60;;;6.20;;
8927;SDS011;4499;48.304;11.902;2023-04-15T08:31:54;8.07;;;6.43;;
8927;SDS011;4499;48.304;11.902;2023-04-15T08:34:22;7.70;;;6.00;;
8927;SDS011;4499;48.304;11.902;2023-04-15T08:36:50;7.70;;;6.07;;
8927;SDS011;4499;48.304;11.902;2023-04-15T08:39:20;7.73;;;5.37;;
8927;SDS011;4499;48.304;11.902;2023-04-15T08:41:50;8.50;;;5.10;;
8927;SDS011;4499;48.304;11.902;2023-04-15T08:44:23;7.10;;;5.70;;
8927;SDS011;4499;48.304;11.902;2023-04-15T08:46:52;7.57;;;5.47;;
8927;SDS011;4499;48.304;11.902;2023-04-15T08:49:23;7.23;;;5.47;;
8927;SDS011;4499;48.304;11.902;2023-04-15T08:51:54;7.70;;;5.43;;
8927;SDS011;4499;48.304;11.902;2023-04-15T08:54:23;8.17;;;5.47;;
8927;SDS011;4499;48.304;11.902;2023-04-15T08:56:53;6.17;;;5.23;;
8927;SDS011;4499;48.304;11.902;2023-04-15T08:59:21;6.73;;;5.53;;
8927;SDS011;4499;48.304;11.902;2023-04-15T09:01:50;6.20;;;5.30;;
8927;SDS011;4499;48.304;11.902;2023-04-15T09:04:19;7.10;;;5.40;;
8927;SDS011;4499;48.304;11.902;2023-04-15T09:06:47;8.53;;;5.30;;
8927;SDS011;4499;48.304;11.902;2023-04-15T09:09:15;7.07;;;5.80;;
8927;SDS011;4499;48.304;11.902;2023-04-15T09:11:44;6.50;;;5.43;;
8927;SDS011;4499;48.304;11.902;2023-04-15T09:14:15;6.97;;;5.43;;
8927;SDS011;4499;48.304;11.902;2023-04-15T09:16:56;7.50;;;5.20;;
8927;SDS011;4499;48.304;11.902;2023-04-15T09:19:25;8.17;;;5.20;;
8927;SDS011;4499;48.304;11.902;2023-04-15T09:21:54;8.50;;;5.60;;
8927;SDS011;4499;48.304;11.902;2023-04-15T09:24:25;8.13;;;5.20;;
8927;SDS011;4499;48.304;11.902;2023-04-15T09:27:04;8.67;;;4.77;;
8927;SDS011;4499;48.304;11.902;2023-04-15T09:29:32;6.73;;;5.20;;
8927;SDS011;4499;48.304;11.902;2023-04-15T09:32:13;8.00;;;5.17;;
8927;SDS011;4499;48.304;11.902;2023-04-15T09:34:42;6.27;;;5.30;;
8927;SDS011;4499;48.304;11.902;2023-04-15T09:37:11;7.80;;;5.00;;
8927;SDS011;4499;48.304;11.902;2023-04-15T09:39:57;7.57;;;5.03;;
8927;SDS011;4499;48.304;11.902;2023-04-15T09:42:26;7.80;;;4.83;;
8927;SDS011;4499;48.304;11.902;2023-04-15T09:44:54;6.90;;;5.20;;
8927;SDS011;4499;48.304;11.902;2023-04-15T09:47:26;8.07;;;5.37;;
8927;SDS011;4499;48.304;11.902;2023-04-15T09:49:55;8.03;;;5.70;;
8927;SDS011;4499;48.304;11.902;2023-04-15T09:52:23;8.97;;;5.77;;
8927;SDS011;4499;48.304;11.902;2023-04-15T09:54:52;7.10;;;5.40;;
8927;SDS011;4499;48.304;11.902;2023-04-15T09:57:21;7.77;;;5.87;;
8927;SDS011;4499;48.304;11.902;2023-04-15T09:59:52;7.00;;;5.63;;
8927;SDS011;4499;48.304;11.902;2023-04-15T10:02:20;6.93;;;5.20;;
8927;SDS011;4499;48.304;11.902;2023-04-15T10:04:48;7.40;;;5.83;;
8927;SDS011;4499;48.304;11.902;2023-04-15T10:07:19;7.23;;;5.80;;
8927;SDS011;4499;48.304;11.902;2023-04-15T10:09:48;24.27;;;18.33;;
8927;SDS011;4499;48.304;11.902;2023-04-15T10:12:17;8.43;;;5.93;;
8927;SDS011;4499;48.304;11.902;2023-04-15T10:14:47;8.30;;;5.43;;
8927;SDS011;4499;48.304;11.902;2023-04-15T10:17:22;7.53;;;5.63;;
8927;SDS011;4499;48.304;11.902;2023-04-15T10:19:57;8.70;;;5.57;;
8927;SDS011;4499;48.304;11.902;2023-04-15T10:22:28;9.27;;;5.77;;
8927;SDS011;4499;48.304;11.902;2023-04-15T10:24:58;8.03;;;6.00;;
8927;SDS011;4499;48.304;11.902;2023-04-15T10:27:26;8.63;;;6.07;;
8927;SDS011;4499;48.304;11.902;2023-04-15T10:29:56;9.73;;;5.90;;
8927;SDS011;4499;48.304;11.902;2023-04-15T10:32:28;7.67;;;5.70;;
8927;SDS011;4499;48.304;11.902;2023-04-15T10:34:57;6.67;;;5.33;;
8927;SDS011;4499;48.304;11.902;2023-04-15T10:37:32;9.07;;;6.27;;
8927;SDS011;4499;48.304;11.902;2023-04-15T10:42:53;9.67;;;6.10;;
8927;SDS011;4499;48.304;11.902;2023-04-15T10:45:25;7.20;;;5.57;;
8927;SDS011;4499;48.304;11.902;2023-04-15T10:47:54;9.73;;;6.20;;
8927;SDS011;4499;48.304;11.902;2023-04-15T10:50:24;10.43;;;6.10;;
8927;SDS011;4499;48.304;11.902;2023-04-15T10:52:55;10.63;;;6.33;;
8927;SDS011;4499;48.304;11.902;2023-04-15T10:55:24;7.17;;;6.30;;
8927;SDS011;4499;48.304;11.902;2023-04-15T10:57:54;8.83;;;5.47;;
8927;SDS011;4499;48.304;11.902;2023-04-15T11:00:28;7.10;;;5.33;;
8927;SDS011;4499;48.304;11.902;2023-04-15T11:02:58;7.63;;;5.43;;
8927;SDS011;4499;48.304;11.902;2023-04-15T11:05:49;9.23;;;4.90;;
8927;SDS011;4499;48.304;11.902;2023-04-15T11:08:18;8.80;;;5.50;;
8927;SDS011;4499;48.304;11.902;2023-04-15T11:10:50;6.33;;;5.40;;
8927;SDS011;4499;48.304;11.902;2023-04-15T11:13:26;7.50;;;4.97;;
8927;SDS011;4499;48.304;11.902;2023-04-15T11:16:01;7.00;;;5.10;;
8927;SDS011;4499;48.304;11.902;2023-04-15T11:18:31;7.13;;;5.20;;
8927;SDS011;4499;48.304;11.902;2023-04-15T11:21:03;7.60;;;5.10;;
8927;SDS011;4499;48.304;11.902;2023-04-15T11:23:34;7.13;;;4.93;;
8927;SDS011;4499;48.304;11.902;2023-04-15T11:26:05;4.87;;;4.10;;
8927;SDS011;4499;48.304;11.902;2023-04-15T11:28:38;6.87;;;4.77;;
8927;SDS011;4499;48.304;11.902;2023-04-15T11:31:09;7.40;;;5.10;;
8927;SDS011;4499;48.304;11.902;2023-04-15T11:33:44;8.37;;;5.37;;
8927;SDS011;4499;48.304;11.902;2023-04-15T11:36:13;6.43;;;5.23;;
8927;SDS011;4499;48.304;11.902;2023-04-15T11:38:42;6.10;;;5.00;;
8927;SDS011;4499;48.304;11.902;2023-04-15T11:41:11;8.47;;;4.87;;
8927;SDS011;4499;48.304;11.902;2023-04-15T11:43:39;6.77;;;5.37;;
8927;SDS011;4499;48.304;11.902;2023-04-15T11:46:09;5.50;;;4.80;;
8927;SDS011;4499;48.304;11.902;2023-04-15T11:48:41;7.73;;;5.10;;
8927;SDS011;4499;48.304;11.902;2023-04-15T11:51:11;6.27;;;5.40;;
8927;SDS011;4499;48.304;11.902;2023-04-15T11:53:41;7.13;;;5.17;;
8927;SDS011;4499;48.304;11.902;2023-04-15T11:56:15;7.17;;;6.10;;
8927;SDS011;4499;48.304;11.902;2023-04-15T11:58:46;7.13;;;5.90;;
8927;SDS011;4499;48.304;11.902;2023-04-15T12:01:17;6.00;;;5.03;;
8927;SDS011;4499;48.304;11.902;2023-04-15T12:03:46;6.73;;;5.27;;
8927;SDS011;4499;48.304;11.902;2023-04-15T12:06:17;6.80;;;5.37;;
8927;SDS011;4499;48.304;11.902;2023-04-15T12:08:50;5.90;;;5.30;;
8927;SDS011;4499;48.304;11.902;2023-04-15T12:11:20;6.93;;;5.03;;
8927;SDS011;4499;48.304;11.902;2023-04-15T12:13:54;7.80;;;5.50;;
8927;SDS011;4499;48.304;11.902;2023-04-15T12:16:26;6.30;;;5.30;;
8927;SDS011;4499;48.304;11.902;2023-04-15T12:18:56;8.33;;;5.47;;
8927;SDS011;4499;48.304;11.902;2023-04-15T12:21:26;7.20;;;5.60;;
8927;SDS011;4499;48.304;11.902;2023-04-15T12:24:00;9.13;;;5.83;;
8927;SDS011;4499;48.304;11.902;2023-04-15T12:26:32;7.97;;;5.70;;
8927;SDS011;4499;48.304;11.902;2023-04-15T12:29:03;8.23;;;5.77;;
8927;SDS011;4499;48.304;11.902;2023-04-15T12:31:34;7.10;;;6.00;;
8927;SDS011;4499;48.304;11.902;2023-04-15T12:34:06;8.40;;;6.00;;
8927;SDS011;4499;48.304;11.902;2023-04-15T12:36:34;9.57;;;5.70;;
8927;SDS011;4499;48.304;11.902;2023-04-15T12:39:03;6.53;;;5.23;;
8927;SDS011;4499;48.304;11.902;2023-04-15T12:41:31;7.97;;;5.60;;
8927;SDS011;4499;48.304;11.902;2023-04-15T12:44:00;5.87;;;4.70;;
8927;SDS011;4499;48.304;11.902;2023-04-15T12:46:29;6.73;;;5.50;;
8927;SDS011;4499;48.304;11.902;2023-04-15T12:48:59;8.03;;;5.13;;
8927;SDS011;4499;48.304;11.902;2023-04-15T12:51:27;7.40;;;5.20;;
8927;SDS011;4499;48.304;11.902;2023-04-15T12:53:57;9.27;;;5.70;;
8927;SDS011;4499;48.304;11.902;2023-04-15T12:56:25;9.07;;;6.33;;
8927;SDS011;4499;48.304;11.902;2023-04-15T12:58:53;7.50;;;5.57;;
8927;SDS011;4499;48.304;11.902;2023-04-15T13:01:21;8.43;;;5.30;;
8927;SDS011;4499;48.304;11.902;2023-04-15T13:03:50;7.07;;;5.10;;
8927;SDS011;4499;48.304;11.902;2023-04-15T13:06:20;6.50;;;5.00;;
8927;SDS011;4499;48.304;11.902;2023-04-15T13:08:49;5.30;;;4.80;;
8927;SDS011;4499;48.304;11.902;2023-04-15T13:11:24;7.20;;;4.90;;
8927;SDS011;4499;48.304;11.902;2023-04-15T13:13:52;8.37;;;5.50;;
8927;SDS011;4499;48.304;11.902;2023-04-15T13:16:21;7.23;;;5.53;;
8927;SDS011;4499;48.304;11.902;2023-04-15T13:18:50;7.30;;;5.40;;
8927;SDS011;4499;48.304;11.902;2023-04-15T13:21:19;6.50;;;5.20;;
8927;SDS011;4499;48.304;11.902;2023-04-15T13:23:48;9.63;;;5.73;;
8927;SDS011;4499;48.304;11.902;2023-04-15T13:26:17;7.13;;;5.40;;
8927;SDS011;4499;48.304;11.902;2023-04-15T13:28:45;6.60;;;5.10;;
8927;SDS011;4499;48.304;11.902;2023-04-15T13:31:13;6.23;;;5.30;;
8927;SDS011;4499;48.304;11.902;2023-04-15T13:33:42;6.97;;;5.40;;
8927;SDS011;4499;48.304;11.902;2023-04-15T13:36:10;5.33;;;4.73;;
8927;SDS011;4499;48.304;11.902;2023-04-15T13:38:40;8.70;;;5.20;;
8927;SDS011;4499;48.304;11.902;2023-04-15T13:41:08;7.13;;;5.40;;
8927;SDS011;4499;48.304;11.902;2023-04-15T13:43:36;7.50;;;5.60;;
8927;SDS011;4499;48.304;11.902;2023-04-15T13:46:04;7.10;;;5.13;;
8927;SDS011;4499;48.304;11.902;2023-04-15T13:48:33;6.93;;;5.07;;
8927;SDS011;4499;48.304;11.902;2023-04-15T13:51:01;6.93;;;5.80;;
8927;SDS011;4499;48.304;11.902;2023-04-15T13:53:29;5.77;;;5.10;;
8927;SDS011;4499;48.304;11.902;2023-04-15T13:56:06;8.30;;;5.83;;
8927;SDS011;4499;48.304;11.902;2023-04-15T13:58:34;7.43;;;5.87;;
8927;SDS011;4499;48.304;11.902;2023-04-15T14:01:03;6.17;;;5.30;;
8927;SDS011;4499;48.304;11.902;2023-04-15T14:03:33;5.77;;;5.17;;
8927;SDS011;4499;48.304;11.902;2023-04-15T14:06:02;6.63;;;4.73;;
8927;SDS011;4499;48.304;11.902;2023-04-15T14:08:31;5.73;;;4.37;;
8927;SDS011;4499;48.304;11.902;2023-04-15T14:10:59;5.27;;;4.27;;
8927;SDS011;4499;48.304;11.902;2023-04-15T14:13:29;6.33;;;4.00;;
8927;SDS011;4499;48.304;11.902;2023-04-15T14:15:57;6.50;;;3.93;;
8927;SDS011;4499;48.304;11.902;2023-04-15T14:18:26;4.97;;;3.60;;
8927;SDS011;4499;48.304;11.902;2023-04-15T14:20:55;4.60;;;3.73;;
8927;SDS011;4499;48.304;11.902;2023-04-15T14:23:23;5.07;;;3.90;;
8927;SDS011;4499;48.304;11.902;2023-04-15T14:25:51;4.53;;;3.67;;
8927;SDS011;4499;48.304;11.902;2023-04-15T14:28:19;4.87;;;3.83;;
8927;SDS011;4499;48.304;11.902;2023-04-15T14:30:49;4.67;;;4.17;;
8927;SDS011;4499;48.304;11.902;2023-04-15T14:33:17;6.43;;;4.00;;
8927;SDS011;4499;48.304;11.902;2023-04-15T14:35:45;4.87;;;3.57;;
8927;SDS011;4499;48.304;11.902;2023-04-15T14:38:16;5.67;;;4.10;;
8927;SDS011;4499;48.304;11.902;2023-04-15T14:40:44;4.87;;;3.90;;
8927;SDS011;4499;48.304;11.902;2023-04-15T14:43:12;6.67;;;4.07;;
8927;SDS011;4499;48.304;11.902;2023-04-15T14:45:40;5.40;;;3.97;;
8927;SDS011;4499;48.304;11.902;2023-04-15T14:48:12;4.50;;;3.90;;
8927;SDS011;4499;48.304;11.902;2023-04-15T14:50:41;4.77;;;4.00;;
8927;SDS011;4499;48.304;11.902;2023-04-15T14:53:09;4.50;;;3.47;;
8927;SDS011;4499;48.304;11.902;2023-04-15T14:55:37;6.90;;;4.07;;
8927;SDS011;4499;48.304;11.902;2023-04-15T14:58:05;4.93;;;4.10;;
8927;SDS011;4499;48.304;11.902;2023-04-15T15:00:34;4.97;;;3.77;;
8927;SDS011;4499;48.304;11.902;2023-04-15T15:03:06;5.40;;;4.27;;
8927;SDS011;4499;48.304;11.902;2023-04-15T15:05:39;5.77;;;3.83;;
8927;SDS011;4499;48.304;11.902;2023-04-15T15:08:09;4.87;;;3.87;;